sensor_id;sensor_type;location;lat;lon;timestamp;pressure;altitude;pressure_sealevel;temperature;humidity
86584;BME280;77229;50.498;10.390;2024-03-23T00:54:35;96457.75;;;20.60;42.16
86584;BME280;77229;50.498;10.390;2024-03-23T00:57:05;96452.05;;;20.59;42.16
86584;BME280;77229;50.498;10.390;2024-03-23T00:59:36;96453.38;;;20.59;42.13
86584;BME280;77229;50.498;10.390;2024-03-23T01:02:06;96454.16;;;20.59;42.10
86584;BME280;77229;50.498;10.390;2024-03-23T01:04:37;96447.20;;;20.58;42.05
86584;BME280;77229;50.498;10.390;2024-03-23T01:07:07;96442.39;;;20.57;42.03
86584;BME280;77229;50.498;10.390;2024-03-23T01:09:39;96441.00;;;20.57;42.03
86584;BME280;77229;50.498;10.390;2024-03-23T01:12:09;96435.16;;;20.56;42.00
86584;BME280;77229;50.498;10.390;2024-03-23T01:14:39;96429.20;;;20.56;41.96
86584;BME280;77229;50.498;10.390;2024-03-23T01:17:10;96429.26;;;20.56;41.95
86584;BME280;77229;50.498;10.390;2024-03-23T01:19:42;96420.92;;;20.54;41.89
86584;BME280;77229;50.498;10.390;2024-03-23T01:22:13;96416.58;;;20.54;41.89
86584;BME280;77229;50.498;10.390;2024-03-23T01:24:41;96410.56;;;20.53;41.83
86584;BME280;77229;50.498;10.390;2024-03-23T01:27:12;96409.31;;;20.52;41.82
86584;BME280;77229;50.498;10.390;2024-03-23T01:29:42;96417.11;;;20.52;41.82
86584;BME280;77229;50.498;10.390;2024-03-23T01:32:13;96411.28;;;20.51;41.77
86584;BME280;77229;50.498;10.390;2024-03-23T01:34:44;96411.89;;;20.51;41.74
86584;BME280;77229;50.498;10.390;2024-03-23T01:37:15;96405.52;;;20.50;41.68
86584;BME280;77229;50.498;10.390;2024-03-23T01:39:45;96403.74;;;20.49;41.69
86584;BME280;77229;50.498;10.390;2024-03-23T01:42:16;96401.07;;;20.49;41.67
86584;BME280;77229;50.498;10.390;2024-03-23T01:44:47;96393.15;;;20.48;41.61
86584;BME280;77229;50.498;10.390;2024-03-23T01:47:18;96387.25;;;20.47;41.60
86584;BME280;77229;50.498;10.390;2024-03-23T01:49:47;96383.30;;;20.47;41.59
86584;BME280;77229;50.498;10.390;2024-03-23T01:52:18;96379.91;;;20.46;41.54
86584;BME280;77229;50.498;10.390;2024-03-23T01:54:48;96374.26;;;20.45;41.55
86584;BME280;77229;50.498;10.390;2024-03-23T01:57:23;96371.81;;;20.45;41.53
86584;BME280;77229;50.498;10.390;2024-03-23T01:59:50;96366.59;;;20.44;41.52
86584;BME280;77229;50.498;10.390;2024-03-23T02:02:21;96357.38;;;20.43;41.49
86584;BME280;77229;50.498;10.390;2024-03-23T02:04:50;96353.31;;;20.42;41.48
86584;BME280;77229;50.498;10.390;2024-03-23T02:07:21;96349.59;;;20.42;41.48
86584;BME280;77229;50.498;10.390;2024-03-23T02:09:55;96338.01;;;20.41;41.48
86584;BME280;77229;50.498;10.390;2024-03-23T02:12:22;96334.39;;;20.41;41.47
86584;BME280;77229;50.498;10.390;2024-03-23T02:14:53;96334.59;;;20.40;41.46
86584;BME280;77229;50.498;10.390;2024-03-23T02:17:23;96326.57;;;20.40;41.47
86584;BME280;77229;50.498;10.390;2024-03-23T02:19:54;96320.46;;;20.39;41.48
86584;BME280;77229;50.498;10.390;2024-03-23T02:22:36;96317.56;;;20.39;41.47
86584;BME280;77229;50.498;10.390;2024-03-23T02:25:00;96315.23;;;20.39;41.50
86584;BME280;77229;50.498;10.390;2024-03-23T02:27:29;96316.88;;;20.38;41.49
86584;BME280;77229;50.498;10.390;2024-03-23T02:29:56;96307.83;;;20.39;41.48
86584;BME280;77229;50.498;10.390;2024-03-23T02:32:27;96297.63;;;20.39;41.47
86584;BME280;77229;50.498;10.390;2024-03-23T02:34:57;96296.68;;;20.39;41.48
86584;BME280;77229;50.498;10.390;2024-03-23T02:37:28;96293.03;;;20.38;41.48
86584;BME280;77229;50.498;10.390;2024-03-23T02:40:00;96294.16;;;20.38;41.49
86584;BME280;77229;50.498;10.390;2024-03-23T02:42:28;96292.55;;;20.38;41.49
86584;BME280;77229;50.498;10.390;2024-03-23T02:44:59;96278.90;;;20.38;41.52
86584;BME280;77229;50.498;10.390;2024-03-23T02:47:30;96273.45;;;20.37;41.51
86584;BME280;77229;50.498;10.390;2024-03-23T02:50:00;96272.78;;;20.37;41.53
86584;BME280;77229;50.498;10.390;2024-03-23T02:52:31;96268.55;;;20.36;41.56
86584;BME280;77229;50.498;10.390;2024-03-23T02:55:06;96277.13;;;20.37;41.58
86584;BME280;77229;50.498;10.390;2024-03-23T02:57:32;96272.40;;;20.36;41.58
86584;BME280;77229;50.498;10.390;2024-03-23T03:00:04;96264.20;;;20.36;41.58
86584;BME280;77229;50.498;10.390;2024-03-23T03:02:34;96268.25;;;20.36;41.60
86584;BME280;77229;50.498;10.390;2024-03-23T03:05:06;96254.45;;;20.35;41.61
86584;BME280;77229;50.498;10.390;2024-03-23T03:07:34;96251.61;;;20.35;41.62
86584;BME280;77229;50.498;10.390;2024-03-23T03:10:09;96242.25;;;20.35;41.66
86584;BME280;77229;50.498;10.390;2024-03-23T03:12:35;96233.62;;;20.36;41.68
86584;BME280;77229;50.498;10.390;2024-03-23T03:15:06;96228.84;;;20.35;41.70
86584;BME280;77229;50.498;10.390;2024-03-23T03:17:37;96227.28;;;20.35;41.74
86584;BME280;77229;50.498;10.390;2024-03-23T03:20:08;96220.09;;;20.35;41.75
86584;BME280;77229;50.498;10.390;2024-03-23T03:22:38;96246.05;;;20.34;41.77
86584;BME280;77229;50.498;10.390;2024-03-23T03:25:08;96215.15;;;20.34;41.78
86584;BME280;77229;50.498;10.390;2024-03-23T03:27:38;96208.30;;;20.34;41.79
86584;BME280;77229;50.498;10.390;2024-03-23T03:30:10;96202.67;;;20.35;41.83
86584;BME280;77229;50.498;10.390;2024-03-23T03:32:40;96200.51;;;20.34;41.86
86584;BME280;77229;50.498;10.390;2024-03-23T03:35:12;96200.11;;;20.34;41.87
86584;BME280;77229;50.498;10.390;2024-03-23T03:37:41;96198.09;;;20.34;41.88
86584;BME280;77229;50.498;10.390;2024-03-23T03:40:12;96193.19;;;20.33;41.92
86584;BME280;77229;50.498;10.390;2024-03-23T03:42:42;96177.60;;;20.33;41.94
86584;BME280;77229;50.498;10.390;2024-03-23T03:45:13;96167.52;;;20.34;41.96
86584;BME280;77229;50.498;10.390;2024-03-23T03:47:45;96161.68;;;20.33;41.99
86584;BME280;77229;50.498;10.390;2024-03-23T03:50:14;96168.25;;;20.33;42.01
86584;BME280;77229;50.498;10.390;2024-03-23T03:52:44;96166.19;;;20.34;42.01
86584;BME280;77229;50.498;10.390;2024-03-23T03:55:16;96167.02;;;20.34;42.01
86584;BME280;77229;50.498;10.390;2024-03-23T03:57:45;96160.62;;;20.33;42.04
86584;BME280;77229;50.498;10.390;2024-03-23T04:00:17;96165.75;;;20.33;42.05
86584;BME280;77229;50.498;10.390;2024-03-23T04:02:48;96167.41;;;20.33;42.04
86584;BME280;77229;50.498;10.390;2024-03-23T04:05:17;96156.24;;;20.34;42.05
86584;BME280;77229;50.498;10.390;2024-03-23T04:07:48;96150.64;;;20.34;42.03
86584;BME280;77229;50.498;10.390;2024-03-23T04:10:18;96141.88;;;20.34;42.08
86584;BME280;77229;50.498;10.390;2024-03-23T04:12:49;96134.80;;;20.34;42.09
86584;BME280;77229;50.498;10.390;2024-03-23T04:15:20;96124.67;;;20.34;42.10
86584;BME280;77229;50.498;10.390;2024-03-23T04:17:51;96111.02;;;20.34;42.11
86584;BME280;77229;50.498;10.390;2024-03-23T04:20:22;96122.16;;;20.34;42.13
86584;BME280;77229;50.498;10.390;2024-03-23T04:22:51;96118.38;;;20.34;42.16
86584;BME280;77229;50.498;10.390;2024-03-23T04:25:22;96106.05;;;20.34;42.19
86584;BME280;77229;50.498;10.390;2024-03-23T04:27:53;96098.66;;;20.34;42.20
86584;BME280;77229;50.498;10.390;2024-03-23T04:30:28;96100.37;;;20.34;42.24
86584;BME280;77229;50.498;10.390;2024-03-23T04:32:54;96102.60;;;20.33;42.25
86584;BME280;77229;50.498;10.390;2024-03-23T04:35:26;96103.27;;;20.33;42.24
86584;BME280;77229;50.498;10.390;2024-03-23T04:37:56;96098.03;;;20.33;42.25
86584;BME280;77229;50.498;10.390;2024-03-23T04:40:26;96107.67;;;20.33;42.26
86584;BME280;77229;50.498;10.390;2024-03-23T04:42:56;96102.38;;;20.33;42.27
86584;BME280;77229;50.498;10.390;2024-03-23T04:45:26;96087.92;;;20.32;42.29
86584;BME280;77229;50.498;10.390;2024-03-23T04:47:57;96069.08;;;20.31;42.30
86584;BME280;77229;50.498;10.390;2024-03-23T04:50:28;96052.27;;;20.30;42.31
86584;BME280;77229;50.498;10.390;2024-03-23T04:52:58;96051.10;;;20.30;42.30
86584;BME280;77229;50.498;10.390;2024-03-23T04:55:29;96042.38;;;20.29;42.34
86584;BME280;77229;50.498;10.390;2024-03-23T04:57:59;96044.33;;;20.29;42.37
86584;BME280;77229;50.498;10.390;2024-03-23T05:00:29;96039.15;;;20.29;42.38
86584;BME280;77229;50.498;10.390;2024-03-23T05:03:00;96039.69;;;20.28;42.41
86584;BME280;77229;50.498;10.390;2024-03-23T05:05:30;96051.27;;;20.29;42.39
86584;BME280;77229;50.498;10.390;2024-03-23T05:08:01;96055.52;;;20.28;42.40
86584;BME280;77229;50.498;10.390;2024-03-23T05:10:34;96051.33;;;20.28;42.41
86584;BME280;77229;50.498;10.390;2024-03-23T05:13:02;96052.50;;;20.28;42.41
86584;BME280;77229;50.498;10.390;2024-03-23T05:15:31;96042.27;;;20.27;42.41
86584;BME280;77229;50.498;10.390;2024-03-23T05:18:02;96034.48;;;20.27;42.41
86584;BME280;77229;50.498;10.390;2024-03-23T05:20:32;96029.83;;;20.26;42.42
86584;BME280;77229;50.498;10.390;2024-03-23T05:23:04;96037.91;;;20.26;42.41
86584;BME280;77229;50.498;10.390;2024-03-23T05:25:34;96033.67;;;20.26;42.42
86584;BME280;77229;50.498;10.390;2024-03-23T05:28:04;96031.73;;;20.26;42.46
86584;BME280;77229;50.498;10.390;2024-03-23T05:30:35;96034.51;;;20.26;42.42
86584;BME280;77229;50.498;10.390;2024-03-23T05:33:05;96035.86;;;20.26;42.43
86584;BME280;77229;50.498;10.390;2024-03-23T05:35:36;96028.95;;;20.26;42.46
86584;BME280;77229;50.498;10.390;2024-03-23T05:38:07;96029.84;;;20.26;42.46
86584;BME280;77229;50.498;10.390;2024-03-23T05:40:40;96024.50;;;20.26;42.47
86584;BME280;77229;50.498;10.390;2024-03-23T05:43:07;96017.65;;;20.26;42.47
86584;BME280;77229;50.498;10.390;2024-03-23T05:45:38;96009.36;;;20.25;42.49
86584;BME280;77229;50.498;10.390;2024-03-23T05:48:08;96009.42;;;20.25;42.52
86584;BME280;77229;50.498;10.390;2024-03-23T05:50:39;96011.25;;;20.25;42.51
86584;BME280;77229;50.498;10.390;2024-03-23T05:53:09;96016.52;;;20.24;42.56
86584;BME280;77229;50.498;10.390;2024-03-23T05:55:40;96014.60;;;20.25;42.59
86584;BME280;77229;50.498;10.390;2024-03-23T05:58:11;96010.52;;;20.24;42.59
86584;BME280;77229;50.498;10.390;2024-03-23T06:00:43;96003.47;;;20.25;42.61
86584;BME280;77229;50.498;10.390;2024-03-23T06:03:12;96006.69;;;20.25;42.61
86584;BME280;77229;50.498;10.390;2024-03-23T06:05:43;96003.47;;;20.25;42.67
86584;BME280;77229;50.498;10.390;2024-03-23T06:08:14;96002.80;;;20.25;42.69
86584;BME280;77229;50.498;10.390;2024-03-23T06:10:43;96002.12;;;20.25;42.70
86584;BME280;77229;50.498;10.390;2024-03-23T06:13:14;95990.71;;;20.25;42.73
86584;BME280;77229;50.498;10.390;2024-03-23T06:15:47;95985.14;;;20.25;42.76
86584;BME280;77229;50.498;10.390;2024-03-23T06:18:16;95986.75;;;20.26;42.78
86584;BME280;77229;50.498;10.390;2024-03-23T06:20:47;95993.88;;;20.25;42.82
86584;BME280;77229;50.498;10.390;2024-03-23T06:23:20;95998.78;;;20.26;42.83
86584;BME280;77229;50.498;10.390;2024-03-23T06:25:47;96002.22;;;20.26;42.86
86584;BME280;77229;50.498;10.390;2024-03-23T06:28:19;96012.24;;;20.26;42.89
86584;BME280;77229;50.498;10.390;2024-03-23T06:30:48;96033.00;;;20.26;42.91
86584;BME280;77229;50.498;10.390;2024-03-23T06:33:18;96055.10;;;20.27;42.92
86584;BME280;77229;50.498;10.390;2024-03-23T06:35:52;96079.49;;;20.27;42.98
86584;BME280;77229;50.498;10.390;2024-03-23T06:38:20;96087.51;;;20.27;42.99
86584;BME280;77229;50.498;10.390;2024-03-23T06:40:53;96095.20;;;20.26;43.03
86584;BME280;77229;50.498;10.390;2024-03-23T06:43:20;96090.58;;;20.26;43.08
86584;BME280;77229;50.498;10.390;2024-03-23T06:45:54;96078.29;;;20.25;43.12
86584;BME280;77229;50.498;10.390;2024-03-23T06:48:23;96092.02;;;20.24;43.19
86584;BME280;77229;50.498;10.390;2024-03-23T06:50:58;96129.00;;;20.25;43.22
86584;BME280;77229;50.498;10.390;2024-03-23T06:53:23;96134.52;;;20.25;43.22
86584;BME280;77229;50.498;10.390;2024-03-23T06:55:54;96139.37;;;20.25;43.26
86584;BME280;77229;50.498;10.390;2024-03-23T06:58:25;96129.93;;;20.24;43.29
86584;BME280;77229;50.498;10.390;2024-03-23T07:00:55;96140.23;;;20.24;43.32
86584;BME280;77229;50.498;10.390;2024-03-23T07:03:27;96150.64;;;20.24;43.30
86584;BME280;77229;50.498;10.390;2024-03-23T07:05:59;96147.53;;;20.24;43.30
86584;BME280;77229;50.498;10.390;2024-03-23T07:08:27;96150.95;;;20.23;43.31
86584;BME280;77229;50.498;10.390;2024-03-23T07:10:58;96155.52;;;20.22;43.34
86584;BME280;77229;50.498;10.390;2024-03-23T07:13:27;96167.70;;;20.23;43.36
86584;BME280;77229;50.498;10.390;2024-03-23T07:16:00;96165.58;;;20.23;43.35
86584;BME280;77229;50.498;10.390;2024-03-23T07:18:30;96160.56;;;20.23;43.34
86584;BME280;77229;50.498;10.390;2024-03-23T07:20:59;96171.98;;;20.23;43.35
86584;BME280;77229;50.498;10.390;2024-03-23T07:23:30;96181.89;;;20.23;43.36
86584;BME280;77229;50.498;10.390;2024-03-23T07:26:01;96189.42;;;20.22;43.35
86584;BME280;77229;50.498;10.390;2024-03-23T07:28:35;96194.14;;;20.23;43.35
86584;BME280;77229;50.498;10.390;2024-03-23T07:31:05;96201.93;;;20.24;43.33
86584;BME280;77229;50.498;10.390;2024-03-23T07:33:32;96232.94;;;20.24;43.33
86584;BME280;77229;50.498;10.390;2024-03-23T07:36:04;96246.69;;;20.24;43.30
86584;BME280;77229;50.498;10.390;2024-03-23T07:38:34;96250.98;;;20.23;43.29
86584;BME280;77229;50.498;10.390;2024-03-23T07:41:05;96274.09;;;20.23;43.27
86584;BME280;77229;50.498;10.390;2024-03-23T07:43:36;96291.02;;;20.23;43.25
86584;BME280;77229;50.498;10.390;2024-03-23T07:46:06;96303.82;;;20.23;43.22
86584;BME280;77229;50.498;10.390;2024-03-23T07:48:36;96320.47;;;20.23;43.21
86584;BME280;77229;50.498;10.390;2024-03-23T07:51:11;96326.70;;;20.23;43.20
86584;BME280;77229;50.498;10.390;2024-03-23T07:53:38;96336.45;;;20.23;43.19
86584;BME280;77229;50.498;10.390;2024-03-23T07:56:09;96348.48;;;20.22;43.14
86584;BME280;77229;50.498;10.390;2024-03-23T07:58:39;96358.70;;;20.22;43.11
86584;BME280;77229;50.498;10.390;2024-03-23T08:01:11;96371.50;;;20.22;43.11
86584;BME280;77229;50.498;10.390;2024-03-23T08:03:45;96373.23;;;20.20;43.07
86584;BME280;77229;50.498;10.390;2024-03-23T08:06:15;96368.89;;;20.21;43.04
86584;BME280;77229;50.498;10.390;2024-03-23T08:08:45;96346.51;;;20.21;42.99
86584;BME280;77229;50.498;10.390;2024-03-23T08:11:13;96354.27;;;20.20;42.97
86584;BME280;77229;50.498;10.390;2024-03-23T08:13:45;96355.98;;;20.20;42.93
86584;BME280;77229;50.498;10.390;2024-03-23T08:16:15;96351.41;;;20.20;42.89
86584;BME280;77229;50.498;10.390;2024-03-23T08:18:44;96367.23;;;20.20;42.88
86584;BME280;77229;50.498;10.390;2024-03-23T08:21:15;96373.06;;;20.21;42.87
86584;BME280;77229;50.498;10.390;2024-03-23T08:23:45;96376.91;;;20.20;42.85
86584;BME280;77229;50.498;10.390;2024-03-23T08:26:17;96384.48;;;20.20;42.84
86584;BME280;77229;50.498;10.390;2024-03-23T08:28:47;96396.77;;;20.19;42.83
86584;BME280;77229;50.498;10.390;2024-03-23T08:31:18;96402.34;;;20.19;42.85
86584;BME280;77229;50.498;10.390;2024-03-23T08:33:48;96413.58;;;20.19;42.87
86584;BME280;77229;50.498;10.390;2024-03-23T08:36:19;96432.67;;;20.19;42.86
86584;BME280;77229;50.498;10.390;2024-03-23T08:38:54;96431.02;;;20.19;42.86
86584;BME280;77229;50.498;10.390;2024-03-23T08:41:22;96449.28;;;20.18;42.87
86584;BME280;77229;50.498;10.390;2024-03-23T08:43:51;96443.88;;;20.19;42.87
86584;BME280;77229;50.498;10.390;2024-03-23T08:46:24;96441.64;;;20.19;42.82
86584;BME280;77229;50.498;10.390;2024-03-23T08:48:53;96438.52;;;20.19;42.79
86584;BME280;77229;50.498;10.390;2024-03-23T08:51:22;96436.30;;;20.18;42.77
86584;BME280;77229;50.498;10.390;2024-03-23T08:53:53;96446.89;;;20.18;42.80
86584;BME280;77229;50.498;10.390;2024-03-23T08:56:23;96458.22;;;20.17;42.90
86584;BME280;77229;50.498;10.390;2024-03-23T08:58:54;96469.58;;;20.16;42.75
86584;BME280;77229;50.498;10.390;2024-03-23T09:01:24;96477.71;;;20.16;42.87
86584;BME280;77229;50.498;10.390;2024-03-23T09:03:56;96477.09;;;20.17;42.93
86584;BME280;77229;50.498;10.390;2024-03-23T09:06:26;96476.28;;;20.19;42.89
86584;BME280;77229;50.498;10.390;2024-03-23T09:08:56;96483.09;;;20.20;42.79
86584;BME280;77229;50.498;10.390;2024-03-23T09:11:26;96492.61;;;20.20;42.73
86584;BME280;77229;50.498;10.390;2024-03-23T09:13:57;96494.78;;;20.20;42.83
86584;BME280;77229;50.498;10.390;2024-03-23T09:16:28;96486.31;;;20.21;42.71
86584;BME280;77229;50.498;10.390;2024-03-23T09:18:58;96493.38;;;20.20;42.61
86584;BME280;77229;50.498;10.390;2024-03-23T09:21:28;96506.59;;;20.13;42.19
86584;BME280;77229;50.498;10.390;2024-03-23T09:23:59;96505.08;;;20.05;41.96
86584;BME280;77229;50.498;10.390;2024-03-23T09:26:30;96499.84;;;20.04;42.38
86584;BME280;77229;50.498;10.390;2024-03-23T09:29:00;96509.77;;;20.06;42.49
86584;BME280;77229;50.498;10.390;2024-03-23T09:31:34;96514.88;;;20.11;42.55
86584;BME280;77229;50.498;10.390;2024-03-23T09:34:01;96522.02;;;20.13;42.56
86584;BME280;77229;50.498;10.390;2024-03-23T09:36:32;96511.48;;;20.15;42.74
86584;BME280;77229;50.498;10.390;2024-03-23T09:39:06;96529.05;;;20.19;42.62
86584;BME280;77229;50.498;10.390;2024-03-23T09:41:34;96523.67;;;20.21;42.46
86584;BME280;77229;50.498;10.390;2024-03-23T09:44:04;96530.18;;;20.22;42.45
86584;BME280;77229;50.498;10.390;2024-03-23T09:46:38;96539.97;;;20.25;42.49
86584;BME280;77229;50.498;10.390;2024-03-23T09:49:08;96531.21;;;20.26;42.51
86584;BME280;77229;50.498;10.390;2024-03-23T09:51:36;96542.42;;;20.28;42.67
86584;BME280;77229;50.498;10.390;2024-03-23T09:54:06;96544.95;;;20.33;42.34
86584;BME280;77229;50.498;10.390;2024-03-23T09:56:36;96546.04;;;20.74;42.01
86584;BME280;77229;50.498;10.390;2024-03-23T09:59:07;96548.56;;;21.21;41.59
86584;BME280;77229;50.498;10.390;2024-03-23T10:01:38;96547.08;;;21.59;41.28
86584;BME280;77229;50.498;10.390;2024-03-23T10:04:08;96551.70;;;21.94;41.08
86584;BME280;77229;50.498;10.390;2024-03-23T10:06:39;96547.11;;;22.21;40.77
86584;BME280;77229;50.498;10.390;2024-03-23T10:09:16;96547.91;;;22.58;40.41
86584;BME280;77229;50.498;10.390;2024-03-23T10:11:39;96567.88;;;22.78;40.23
86584;BME280;77229;50.498;10.390;2024-03-23T10:14:09;96567.50;;;22.92;40.09
86584;BME280;77229;50.498;10.390;2024-03-23T10:16:40;96583.47;;;22.98;40.19
86584;BME280;77229;50.498;10.390;2024-03-23T10:19:10;96583.72;;;23.24;39.93
86584;BME280;77229;50.498;10.390;2024-03-23T10:21:52;96590.97;;;23.30;39.95
86584;BME280;77229;50.498;10.390;2024-03-23T10:24:12;96589.96;;;23.40;39.85
86584;BME280;77229;50.498;10.390;2024-03-23T10:26:41;96593.86;;;23.71;39.48
86584;BME280;77229;50.498;10.390;2024-03-23T10:29:17;96598.89;;;23.66;38.82
86584;BME280;77229;50.498;10.390;2024-03-23T10:31:43;96600.59;;;23.71;39.19
86584;BME280;77229;50.498;10.390;2024-03-23T10:34:13;96600.19;;;23.88;39.20
86584;BME280;77229;50.498;10.390;2024-03-23T10:36:45;96608.03;;;24.02;39.13
86584;BME280;77229;50.498;10.390;2024-03-23T10:39:18;96604.69;;;24.15;39.12
86584;BME280;77229;50.498;10.390;2024-03-23T10:41:45;96603.98;;;24.25;39.17
86584;BME280;77229;50.498;10.390;2024-03-23T10:44:19;96607.95;;;24.39;39.03
86584;BME280;77229;50.498;10.390;2024-03-23T10:46:47;96608.44;;;24.58;38.92
86584;BME280;77229;50.498;10.390;2024-03-23T10:49:17;96607.00;;;24.73;38.82
86584;BME280;77229;50.498;10.390;2024-03-23T10:51:48;96603.27;;;24.89;38.70
86584;BME280;77229;50.498;10.390;2024-03-23T10:54:19;96602.92;;;24.71;38.81
86584;BME280;77229;50.498;10.390;2024-03-23T10:56:52;96601.23;;;24.48;38.98
86584;BME280;77229;50.498;10.390;2024-03-23T10:59:21;96601.97;;;24.32;39.20
86584;BME280;77229;50.498;10.390;2024-03-23T11:01:54;96603.20;;;24.16;39.33
86584;BME280;77229;50.498;10.390;2024-03-23T11:04:35;96600.95;;;24.02;39.44
86584;BME280;77229;50.498;10.390;2024-03-23T11:06:51;96601.73;;;23.91;39.48
86584;BME280;77229;50.498;10.390;2024-03-23T11:09:42;96596.64;;;23.80;39.46
86584;BME280;77229;50.498;10.390;2024-03-23T11:11:52;96595.33;;;23.73;39.47
86584;BME280;77229;50.498;10.390;2024-03-23T11:14:22;96598.91;;;23.63;39.49
86584;BME280;77229;50.498;10.390;2024-03-23T11:17:10;96600.52;;;23.56;39.53
86584;BME280;77229;50.498;10.390;2024-03-23T11:19:37;96598.03;;;23.49;39.58
86584;BME280;77229;50.498;10.390;2024-03-23T11:21:56;96606.42;;;23.43;39.54
86584;BME280;77229;50.498;10.390;2024-03-23T11:24:24;96603.69;;;23.38;39.59
86584;BME280;77229;50.498;10.390;2024-03-23T11:26:55;96624.77;;;23.30;39.49
86584;BME280;77229;50.498;10.390;2024-03-23T11:29:25;96630.11;;;23.22;39.29
86584;BME280;77229;50.498;10.390;2024-03-23T11:31:56;96631.38;;;23.16;39.20
86584;BME280;77229;50.498;10.390;2024-03-23T11:34:27;96628.25;;;23.11;39.19
86584;BME280;77229;50.498;10.390;2024-03-23T11:37:07;96628.59;;;23.07;39.14
86584;BME280;77229;50.498;10.390;2024-03-23T11:39:28;96629.84;;;23.02;39.19
86584;BME280;77229;50.498;10.390;2024-03-23T11:41:59;96626.50;;;22.99;39.28
86584;BME280;77229;50.498;10.390;2024-03-23T11:44:30;96622.16;;;22.96;39.39
86584;BME280;77229;50.498;10.390;2024-03-23T11:47:10;96614.53;;;22.92;39.41
86584;BME280;77229;50.498;10.390;2024-03-23T11:49:37;96606.30;;;22.88;39.49
86584;BME280;77229;50.498;10.390;2024-03-23T11:52:02;96604.41;;;22.87;39.52
86584;BME280;77229;50.498;10.390;2024-03-23T11:54:32;96595.92;;;22.84;39.57
86584;BME280;77229;50.498;10.390;2024-03-23T11:57:08;96596.33;;;22.81;39.55
86584;BME280;77229;50.498;10.390;2024-03-23T11:59:35;96591.58;;;22.78;39.60
86584;BME280;77229;50.498;10.390;2024-03-23T12:02:12;96579.47;;;22.75;39.64
86584;BME280;77229;50.498;10.390;2024-03-23T12:04:38;96569.62;;;22.74;39.71
86584;BME280;77229;50.498;10.390;2024-03-23T12:07:18;96563.98;;;22.71;39.70
86584;BME280;77229;50.498;10.390;2024-03-23T12:09:36;96558.73;;;22.69;39.73
86584;BME280;77229;50.498;10.390;2024-03-23T12:12:08;96554.27;;;22.67;39.82
86584;BME280;77229;50.498;10.390;2024-03-23T12:14:38;96552.11;;;22.66;39.91
86584;BME280;77229;50.498;10.390;2024-03-23T12:17:14;96551.16;;;22.64;40.19
86584;BME280;77229;50.498;10.390;2024-03-23T12:19:39;96543.05;;;22.60;40.29
86584;BME280;77229;50.498;10.390;2024-03-23T12:22:10;96540.48;;;22.58;40.38
86584;BME280;77229;50.498;10.390;2024-03-23T12:24:46;96533.02;;;22.56;40.35
86584;BME280;77229;50.498;10.390;2024-03-23T12:27:10;96534.02;;;22.55;40.30
86584;BME280;77229;50.498;10.390;2024-03-23T12:29:43;96539.17;;;22.50;40.19
86584;BME280;77229;50.498;10.390;2024-03-23T12:32:14;96546.20;;;22.48;40.13
86584;BME280;77229;50.498;10.390;2024-03-23T12:34:42;96548.80;;;22.47;40.27
86584;BME280;77229;50.498;10.390;2024-03-23T12:37:13;96553.30;;;22.46;40.26
86584;BME280;77229;50.498;10.390;2024-03-23T12:39:44;96553.20;;;22.45;40.21
86584;BME280;77229;50.498;10.390;2024-03-23T12:42:13;96550.47;;;22.43;40.16
86584;BME280;77229;50.498;10.390;2024-03-23T12:44:44;96553.09;;;22.41;40.21
86584;BME280;77229;50.498;10.390;2024-03-23T12:47:15;96552.33;;;22.40;40.10
86584;BME280;77229;50.498;10.390;2024-03-23T12:49:50;96558.41;;;22.41;40.15
86584;BME280;77229;50.498;10.390;2024-03-23T12:52:16;96558.45;;;22.39;40.10
86584;BME280;77229;50.498;10.390;2024-03-23T12:54:47;96555.78;;;22.43;40.48
86584;BME280;77229;50.498;10.390;2024-03-23T12:57:17;96557.08;;;22.40;39.89
86584;BME280;77229;50.498;10.390;2024-03-23T12:59:53;96556.41;;;22.31;39.72
86584;BME280;77229;50.498;10.390;2024-03-23T13:02:20;96561.29;;;22.26;39.60
86584;BME280;77229;50.498;10.390;2024-03-23T13:04:54;96559.25;;;22.17;39.38
86584;BME280;77229;50.498;10.390;2024-03-23T13:07:20;96546.52;;;22.12;39.36
86584;BME280;77229;50.498;10.390;2024-03-23T13:09:50;96549.36;;;22.01;39.02
86584;BME280;77229;50.498;10.390;2024-03-23T13:12:21;96549.72;;;21.81;38.81
86584;BME280;77229;50.498;10.390;2024-03-23T13:14:50;96552.03;;;21.67;38.68
86584;BME280;77229;50.498;10.390;2024-03-23T13:17:21;96545.75;;;21.44;38.49
86584;BME280;77229;50.498;10.390;2024-03-23T13:19:51;96542.36;;;21.37;38.50
86584;BME280;77229;50.498;10.390;2024-03-23T13:22:22;96544.58;;;21.41;38.38
86584;BME280;77229;50.498;10.390;2024-03-23T13:24:53;96539.45;;;21.46;38.46
86584;BME280;77229;50.498;10.390;2024-03-23T13:27:23;96542.09;;;21.50;38.53
86584;BME280;77229;50.498;10.390;2024-03-23T13:29:54;96540.19;;;21.53;38.44
86584;BME280;77229;50.498;10.390;2024-03-23T13:32:24;96546.17;;;21.54;38.42
86584;BME280;77229;50.498;10.390;2024-03-23T13:34:55;96546.42;;;21.54;38.39
86584;BME280;77229;50.498;10.390;2024-03-23T13:37:28;96547.85;;;21.54;38.39
86584;BME280;77229;50.498;10.390;2024-03-23T13:39:55;96549.05;;;21.54;38.35
86584;BME280;77229;50.498;10.390;2024-03-23T13:42:26;96552.38;;;21.54;38.48
86584;BME280;77229;50.498;10.390;2024-03-23T13:44:57;96551.73;;;21.56;38.73
86584;BME280;77229;50.498;10.390;2024-03-23T13:47:28;96554.27;;;21.57;38.86
86584;BME280;77229;50.498;10.390;2024-03-23T13:49:58;96560.80;;;21.59;38.87
86584;BME280;77229;50.498;10.390;2024-03-23T13:52:29;96554.92;;;21.61;38.93
86584;BME280;77229;50.498;10.390;2024-03-23T13:54:59;96557.28;;;21.59;38.69
86584;BME280;77229;50.498;10.390;2024-03-23T13:57:30;96565.08;;;21.64;38.80
86584;BME280;77229;50.498;10.390;2024-03-23T14:00:00;96553.71;;;21.70;39.08